createdAt,value
2023-04-21T00:01:47.785Z,99124.06
2023-04-21T00:04:15.570Z,99121.94
2023-04-21T00:06:44.487Z,99118.09
2023-04-21T00:09:12.109Z,99126.44
2023-04-21T00:11:39.622Z,99124.03
2023-04-21T00:14:07.269Z,99118.38
2023-04-21T00:16:34.796Z,99121.16
2023-04-21T00:19:06.764Z,99109.44
2023-04-21T00:21:35.430Z,99110.84
2023-04-21T00:24:03.370Z,99111.28
2023-04-21T00:26:30.837Z,99112.59
2023-04-21T00:28:58.473Z,99104.94
2023-04-21T00:31:26.038Z,99102.41
2023-04-21T00:33:54.025Z,99101.81
2023-04-21T00:36:24.850Z,99105.88
2023-04-21T00:38:54.397Z,99109.50
2023-04-21T00:41:21.951Z,99107.78
2023-04-21T00:44:05.438Z,99104.72
2023-04-21T00:46:34.349Z,99102.75
2023-04-21T00:49:06.178Z,99089.91
2023-04-21T00:51:36.475Z,99090.78
2023-04-21T00:54:06.866Z,99099.47
2023-04-21T00:56:36.730Z,99093.88
2023-04-21T00:59:05.275Z,99091.53
2023-04-21T01:01:36.682Z,99085.06
2023-04-21T01:04:06.232Z,99086.16
2023-04-21T01:06:34.425Z,99088.25
2023-04-21T01:09:02.198Z,99085.38
2023-04-21T01:11:29.649Z,99087.81
2023-04-21T01:13:57.192Z,99092.03
2023-04-21T01:16:25.584Z,99090.09
2023-04-21T01:18:54.776Z,99091.75
2023-04-21T01:21:23.742Z,99093.97
2023-04-21T01:23:51.553Z,99092.75
2023-04-21T01:26:21.627Z,99082.78
2023-04-21T01:28:50.077Z,99081.91
2023-04-21T01:31:18.476Z,99069.47
2023-04-21T01:33:46.304Z,99076.59
2023-04-21T01:36:13.798Z,99076.75
2023-04-21T01:38:42.552Z,99085.69
2023-04-21T01:41:11.048Z,99076.03
2023-04-21T01:43:39.324Z,99075.25
2023-04-21T01:46:07.416Z,99077.13
2023-04-21T01:48:36.596Z,99078.47
2023-04-21T01:51:05.633Z,99082.50
2023-04-21T01:53:33.478Z,99082.50
2023-04-21T01:56:02.591Z,99082.69
2023-04-21T01:58:31.777Z,99087.94
2023-04-21T02:00:59.285Z,99086.66
2023-04-21T02:03:26.982Z,99083.75
2023-04-21T02:05:54.705Z,99082.38
2023-04-21T02:08:22.106Z,99078.03
2023-04-21T02:10:49.716Z,99074.13
2023-04-21T02:13:20.199Z,99075.84
2023-04-21T02:15:47.657Z,99068.75
2023-04-21T02:18:16.895Z,99072.59
2023-04-21T02:20:45.027Z,99060.91
2023-04-21T02:23:14.606Z,99068.03
2023-04-21T02:25:42.056Z,99062.63
2023-04-21T02:28:09.557Z,99071.75
2023-04-21T02:30:37.069Z,99066.19
2023-04-21T02:33:04.625Z,99072.53
2023-04-21T02:35:33.882Z,99074.38
2023-04-21T02:38:07.173Z,99078.50
2023-04-21T02:40:34.814Z,99076.50
2023-04-21T02:43:03.267Z,99083.44
2023-04-21T02:45:32.113Z,99082.09
2023-04-21T02:47:59.705Z,99081.47
2023-04-21T02:50:27.171Z,99085.63
2023-04-21T02:52:54.630Z,99092.56
2023-04-21T02:55:23.110Z,99093.66
2023-04-21T02:57:50.623Z,99093.66
2023-04-21T03:00:18.360Z,99088.91
2023-04-21T03:02:46.098Z,99092.59
2023-04-21T03:05:13.819Z,99094.28
2023-04-21T03:07:41.401Z,99081.50
2023-04-21T03:10:09.077Z,99086.91
2023-04-21T03:12:37.764Z,99078.59
2023-04-21T03:15:06.036Z,99085.53
2023-04-21T03:17:35.548Z,99090.91
2023-04-21T03:20:06.162Z,99100.59
2023-04-21T03:22:34.331Z,99096.00
2023-04-21T03:25:01.977Z,99097.50
2023-04-21T03:27:29.479Z,99092.16
2023-04-21T03:29:58.129Z,99092.91
2023-04-21T03:32:28.878Z,99090.59
2023-04-21T03:34:56.508Z,99087.69
2023-04-21T03:37:24.000Z,99086.44
2023-04-21T03:39:51.488Z,99090.28
2023-04-21T03:42:20.327Z,99106.31
2023-04-21T03:44:47.742Z,99097.81
2023-04-21T03:47:17.545Z,99106.47
2023-04-21T03:49:44.940Z,99101.22
2023-04-21T03:52:12.517Z,99108.28
2023-04-21T03:54:39.950Z,99109.53
2023-04-21T03:57:07.642Z,99119.09
2023-04-21T03:59:35.276Z,99115.69
2023-04-21T04:02:02.782Z,99111.53
2023-04-21T04:04:30.734Z,99115.09
2023-04-21T04:06:58.492Z,99113.00
2023-04-21T04:09:26.145Z,99117.47
2023-04-21T04:11:53.612Z,99118.88
2023-04-21T04:14:21.052Z,99123.66
2023-04-21T04:16:48.495Z,99122.56
2023-04-21T04:19:19.096Z,99115.53
2023-04-21T04:21:48.945Z,99114.88
2023-04-21T04:24:16.737Z,99125.53
2023-04-21T04:26:44.503Z,99131.84
2023-04-21T04:29:13.864Z,99131.53
2023-04-21T04:31:41.418Z,99141.25
2023-04-21T04:34:09.755Z,99144.34
2023-04-21T04:36:38.321Z,99144.66
2023-04-21T04:39:07.204Z,99141.25
2023-04-21T04:41:36.469Z,99139.88
2023-04-21T04:44:05.058Z,99135.41
2023-04-21T04:46:33.203Z,99142.13
2023-04-21T04:49:01.941Z,99138.59
2023-04-21T04:51:30.114Z,99133.63
2023-04-21T04:53:57.511Z,99143.47
2023-04-21T04:56:25.055Z,99140.81
2023-04-21T04:58:52.444Z,99139.25
2023-04-21T05:01:20.036Z,99144.56
2023-04-21T05:03:47.734Z,99140.94
2023-04-21T05:06:15.238Z,99143.03
2023-04-21T05:08:42.717Z,99150.50
2023-04-21T05:11:10.325Z,99143.06
2023-04-21T05:13:39.942Z,99154.53
2023-04-21T05:16:10.196Z,99149.06
2023-04-21T05:18:38.523Z,99156.78
2023-04-21T05:21:06.258Z,99156.75
2023-04-21T05:23:34.124Z,99155.84
2023-04-21T05:26:04.204Z,99147.00
2023-04-21T05:28:32.408Z,99148.38
2023-04-21T05:30:59.883Z,99150.25
2023-04-21T05:33:27.332Z,99145.22
2023-04-21T05:35:54.882Z,99150.81
2023-04-21T05:38:22.349Z,99146.53
2023-04-21T05:40:56.460Z,99148.88
2023-04-21T05:43:35.771Z,99149.19
2023-04-21T05:46:07.590Z,99149.59
2023-04-21T05:48:35.424Z,99141.19
2023-04-21T05:51:13.395Z,99138.88
2023-04-21T05:53:41.737Z,99133.81
2023-04-21T05:56:14.273Z,99119.44
2023-04-21T05:58:41.954Z,99133.06
2023-04-21T06:01:09.546Z,99130.97
2023-04-21T06:03:37.201Z,99130.09
2023-04-21T06:06:06.268Z,99130.88
2023-04-21T06:08:34.159Z,99130.84
2023-04-21T06:11:01.631Z,99136.09
2023-04-21T06:13:29.547Z,99142.09
2023-04-21T06:15:57.080Z,99138.13
2023-04-21T06:18:26.746Z,99137.81
2023-04-21T06:20:55.634Z,99142.16
2023-04-21T06:23:23.207Z,99136.81
2023-04-21T06:26:05.534Z,99143.09
2023-04-21T06:28:34.877Z,99140.22
2023-04-21T06:31:04.937Z,99133.94
2023-04-21T06:33:34.472Z,99127.03
2023-04-21T06:36:05.839Z,99129.00
2023-04-21T06:38:33.680Z,99122.72
2023-04-21T06:41:01.211Z,99123.25
2023-04-21T06:43:31.400Z,99121.63
2023-04-21T06:45:58.924Z,99127.06
2023-04-21T06:48:26.503Z,99134.47
2023-04-21T06:50:54.333Z,99128.34
2023-04-21T06:53:21.876Z,99124.16
2023-04-21T06:55:49.631Z,99135.97
2023-04-21T06:58:17.974Z,99125.69
2023-04-21T07:00:47.467Z,99120.88
2023-04-21T07:03:15.070Z,99136.22
2023-04-21T07:05:42.643Z,99121.25
2023-04-21T07:08:10.115Z,99128.84
2023-04-21T07:10:37.700Z,99132.22
2023-04-21T07:13:05.329Z,99123.56
2023-04-21T07:15:32.927Z,99141.00
2023-04-21T07:18:01.036Z,99128.06
2023-04-21T07:20:28.683Z,99123.69
2023-04-21T07:22:57.505Z,99125.28
2023-04-21T07:25:24.947Z,99132.44
2023-04-21T07:27:52.508Z,99129.47
2023-04-21T07:30:20.090Z,99125.41
2023-04-21T07:32:47.805Z,99117.09
2023-04-21T07:35:15.906Z,99125.56
2023-04-21T07:37:43.319Z,99129.91
2023-04-21T07:40:11.589Z,99121.19
2023-04-21T07:42:39.548Z,99113.22
2023-04-21T07:45:09.332Z,99119.88
2023-04-21T07:47:36.864Z,99121.69
2023-04-21T07:50:04.945Z,99118.16
2023-04-21T07:52:32.494Z,99126.66
2023-04-21T07:54:59.973Z,99118.34
2023-04-21T07:57:27.412Z,99125.03
2023-04-21T07:59:54.890Z,99120.41
2023-04-21T08:02:22.592Z,99116.66
2023-04-21T08:04:50.628Z,99116.72
2023-04-21T08:07:18.081Z,99112.16
2023-04-21T08:09:47.730Z,99102.09
2023-04-21T08:12:15.275Z,99114.00
2023-04-21T08:14:44.001Z,99107.16
2023-04-21T08:17:11.486Z,99102.31
2023-04-21T08:19:38.949Z,99102.31
2023-04-21T08:22:06.867Z,99108.31
2023-04-21T08:24:34.324Z,99112.91
2023-04-21T08:27:02.368Z,99105.66
2023-04-21T08:29:30.058Z,99107.16
2023-04-21T08:31:57.636Z,99106.41
2023-04-21T08:34:27.418Z,99105.31
2023-04-21T08:36:55.876Z,99110.75
2023-04-21T08:39:23.463Z,99106.91
2023-04-21T08:41:54.599Z,99107.72
2023-04-21T08:44:22.453Z,99107.25
2023-04-21T08:46:51.489Z,99108.16
2023-04-21T08:49:22.038Z,99100.53
2023-04-21T08:51:49.791Z,99105.50
2023-04-21T08:54:17.235Z,99102.06
2023-04-21T08:56:44.658Z,99101.75
2023-04-21T08:59:12.153Z,99091.84
2023-04-21T09:02:16.836Z,99089.59
2023-04-21T09:04:47.340Z,99090.31
2023-04-21T09:07:39.277Z,99088.50
2023-04-21T09:10:07.749Z,99076.72
2023-04-21T09:12:35.203Z,99083.59
2023-04-21T09:15:07.022Z,99084.72
2023-04-21T09:17:36.807Z,99087.00
2023-04-21T09:20:22.148Z,99078.63
2023-04-21T09:22:51.380Z,99066.81
2023-04-21T09:25:23.681Z,99077.84
2023-04-21T09:27:51.105Z,99071.38
2023-04-21T09:30:22.737Z,99068.34
2023-04-21T09:32:50.525Z,99063.75
2023-04-21T09:35:17.959Z,99067.88
2023-04-21T09:37:45.593Z,99063.34
2023-04-21T09:40:20.842Z,99067.13
2023-04-21T09:42:49.589Z,99063.75
2023-04-21T09:45:32.914Z,99067.47
2023-04-21T09:48:09.010Z,99059.41
2023-04-21T09:51:20.984Z,99061.75
2023-04-21T09:53:29.275Z,99056.78
2023-04-21T09:55:59.356Z,99059.00
2023-04-21T09:58:29.041Z,99057.47
2023-04-21T10:00:58.131Z,99038.41
2023-04-21T10:03:29.562Z,99037.31
2023-04-21T10:05:58.016Z,99043.47
2023-04-21T10:08:25.635Z,99041.19
2023-04-21T10:10:54.501Z,99026.47
2023-04-21T10:13:23.026Z,99031.66
2023-04-21T10:16:07.747Z,99023.78
2023-04-21T10:18:42.813Z,99030.19
2023-04-21T10:21:13.288Z,99018.47
2023-04-21T10:23:44.508Z,99020.13
2023-04-21T10:26:19.723Z,99020.59
2023-04-21T10:29:06.913Z,99021.63
2023-04-21T10:31:44.565Z,99015.00
2023-04-21T10:34:12.418Z,99012.84
2023-04-21T10:36:46.012Z,99024.63
2023-04-21T10:39:42.448Z,99016.09
2023-04-21T10:42:19.840Z,99013.69
2023-04-21T10:44:59.882Z,99015.69
2023-04-21T10:47:52.060Z,99015.91
2023-04-21T10:50:29.598Z,99011.59
2023-04-21T10:53:12.533Z,99015.09
2023-04-21T10:55:42.452Z,99012.88
2023-04-21T10:58:10.714Z,99015.00
2023-04-21T11:00:39.299Z,99015.09
2023-04-21T11:03:09.776Z,99007.13
2023-04-21T11:05:42.445Z,99004.44
2023-04-21T11:08:19.249Z,99010.91
2023-04-21T11:10:56.817Z,99006.72
2023-04-21T11:13:33.858Z,99003.69
2023-04-21T11:16:05.932Z,99006.34
2023-04-21T11:18:37.954Z,98996.84
2023-04-21T11:21:18.100Z,99005.97
2023-04-21T11:23:54.325Z,99000.19
2023-04-21T11:26:33.419Z,99002.06
2023-04-21T11:29:05.499Z,99009.28
2023-04-21T11:31:33.565Z,99008.50
2023-04-21T11:34:02.354Z,99006.75
2023-04-21T11:36:30.448Z,99007.75
2023-04-21T11:38:57.919Z,99002.34
2023-04-21T11:41:26.996Z,99007.41
2023-04-21T11:43:54.507Z,99001.06
2023-04-21T11:46:27.546Z,99005.47
2023-04-21T11:49:30.573Z,99000.69
2023-04-21T11:51:58.191Z,98998.75
2023-04-21T11:54:25.721Z,99009.81
2023-04-21T11:56:56.095Z,99008.81
2023-04-21T11:59:26.355Z,99005.31
2023-04-21T12:01:55.480Z,99000.19
2023-04-21T12:04:26.015Z,98997.56
2023-04-21T12:07:02.710Z,98999.00
2023-04-21T12:09:31.088Z,99006.44
2023-04-21T12:12:03.794Z,99002.97
2023-04-21T12:14:34.845Z,98995.25
2023-04-21T12:17:02.329Z,98996.81
2023-04-21T12:19:41.171Z,98991.88
2023-04-21T12:22:22.988Z,98991.13
2023-04-21T12:24:50.482Z,98984.50
2023-04-21T12:27:19.184Z,98981.69
2023-04-21T12:29:46.699Z,98980.63
2023-04-21T12:32:14.975Z,98973.69
2023-04-21T12:34:43.328Z,98976.09
2023-04-21T12:37:11.116Z,98965.91
2023-04-21T12:39:38.612Z,98967.59
2023-04-21T12:42:06.428Z,98966.03
2023-04-21T12:44:33.924Z,98956.44
2023-04-21T12:47:01.453Z,98970.00
2023-04-21T12:49:29.246Z,98970.38
2023-04-21T12:51:56.755Z,98964.97
2023-04-21T12:54:24.178Z,98968.19
2023-04-21T12:56:51.839Z,98971.63
2023-04-21T12:59:19.252Z,98964.25
2023-04-21T13:01:47.053Z,98962.56
2023-04-21T13:04:14.923Z,98966.25
2023-04-21T13:06:42.644Z,98964.19
2023-04-21T13:09:11.357Z,98958.56
2023-04-21T13:11:38.867Z,98962.47
2023-04-21T13:14:06.919Z,98959.66
2023-04-21T13:16:34.420Z,98958.63
2023-04-21T13:19:01.897Z,98958.97
2023-04-21T13:21:29.299Z,98951.03
2023-04-21T13:23:57.431Z,98958.03
2023-04-21T13:26:25.844Z,98952.19
2023-04-21T13:28:53.367Z,98955.78
2023-04-21T13:31:20.929Z,98947.19
2023-04-21T13:33:50.304Z,98947.41
2023-04-21T13:36:21.077Z,98949.75
2023-04-21T13:38:50.970Z,98944.13
2023-04-21T13:41:18.426Z,98941.81
2023-04-21T13:43:46.714Z,98942.13
2023-04-21T13:46:14.794Z,98942.81
2023-04-21T13:48:42.509Z,98944.63
2023-04-21T13:51:10.509Z,98943.00
2023-04-21T13:53:39.067Z,98942.72
2023-04-21T13:56:06.757Z,98942.41
2023-04-21T13:58:34.332Z,98948.00
2023-04-21T14:01:01.846Z,98953.16
2023-04-21T14:03:29.668Z,98942.84
2023-04-21T14:05:57.436Z,98941.16
2023-04-21T14:08:25.196Z,98943.34
2023-04-21T14:10:52.766Z,98946.03
2023-04-21T14:13:33.861Z,98939.22
2023-04-21T14:16:05.523Z,98942.34
2023-04-21T14:18:36.465Z,98945.75
2023-04-21T14:21:04.206Z,98939.16
2023-04-21T14:23:31.745Z,98950.22
2023-04-21T14:25:59.241Z,98944.63
2023-04-21T14:28:26.788Z,98945.97
2023-04-21T14:30:54.267Z,98948.34
2023-04-21T14:33:21.740Z,98953.44
2023-04-21T14:35:49.437Z,98950.38
2023-04-21T14:38:16.928Z,98949.28
2023-04-21T14:40:44.844Z,98948.81
2023-04-21T14:43:12.376Z,98944.00
2023-04-21T14:45:41.218Z,98937.53
2023-04-21T14:48:08.810Z,98940.66
2023-04-21T14:50:40.420Z,98944.19
2023-04-21T14:53:08.049Z,98938.50
2023-04-21T14:55:35.850Z,98941.00
2023-04-21T14:58:03.458Z,98941.34
2023-04-21T15:00:32.089Z,98948.03
2023-04-21T15:03:00.030Z,98959.59
2023-04-21T15:05:27.786Z,98965.00
2023-04-21T15:07:55.748Z,98980.06
2023-04-21T15:10:23.283Z,98982.41
2023-04-21T15:12:50.694Z,98976.25
2023-04-21T15:15:18.586Z,98986.97
2023-04-21T15:17:46.139Z,98998.13
2023-04-21T15:20:13.844Z,98994.00
2023-04-21T15:22:41.952Z,99005.81
2023-04-21T15:25:10.024Z,99000.16
2023-04-21T15:27:38.528Z,99000.22
2023-04-21T15:30:06.964Z,98997.19
2023-04-21T15:32:34.451Z,99004.44
2023-04-21T15:35:03.284Z,99004.44
2023-04-21T15:37:30.987Z,99005.16
2023-04-21T15:39:58.644Z,99010.50
2023-04-21T15:42:27.586Z,99012.00
2023-04-21T15:44:55.777Z,99009.69
2023-04-21T15:47:23.625Z,98997.41
2023-04-21T15:49:54.465Z,98998.59
2023-04-21T15:52:22.194Z,99000.91
2023-04-21T15:54:51.173Z,98996.03
2023-04-21T15:57:18.667Z,98998.31
2023-04-21T15:59:46.253Z,98991.09
2023-04-21T16:02:13.866Z,98993.38
2023-04-21T16:04:42.899Z,98982.00
2023-04-21T16:07:11.511Z,98984.28
2023-04-21T16:09:38.978Z,98985.38
2023-04-21T16:12:10.269Z,98992.13
2023-04-21T16:14:54.311Z,98989.31
2023-04-21T16:17:26.329Z,98996.84
2023-04-21T16:19:54.696Z,98993.75
2023-04-21T16:22:23.926Z,98992.69
2023-04-21T16:24:53.154Z,98992.94
2023-04-21T16:27:20.924Z,98988.88
2023-04-21T16:29:50.288Z,98998.16
2023-04-21T16:32:18.599Z,99014.59
2023-04-21T16:34:46.302Z,99012.38
2023-04-21T16:37:14.796Z,99021.94
2023-04-21T16:39:43.805Z,99020.41
2023-04-21T16:42:15.976Z,99017.66
2023-04-21T16:44:45.149Z,99023.97
2023-04-21T16:47:14.086Z,99034.88
2023-04-21T16:49:41.637Z,99030.59
2023-04-21T16:52:11.223Z,99047.19
2023-04-21T16:54:39.013Z,99055.13
2023-04-21T16:57:07.290Z,99068.59
2023-04-21T16:59:39.449Z,99068.31
2023-04-21T17:02:07.169Z,99056.00
2023-04-21T17:04:36.657Z,99060.31
2023-04-21T17:07:04.411Z,99069.47
2023-04-21T17:09:31.899Z,99064.22
2023-04-21T17:12:00.205Z,99069.25
2023-04-21T17:14:28.084Z,99064.34
2023-04-21T17:16:56.189Z,99075.84
2023-04-21T17:19:25.984Z,99080.59
2023-04-21T17:21:53.476Z,99088.03
2023-04-21T17:24:21.055Z,99087.72
2023-04-21T17:26:48.556Z,99082.56
2023-04-21T17:29:16.166Z,99095.16
2023-04-21T17:31:44.510Z,99089.72
2023-04-21T17:34:13.345Z,99089.88
2023-04-21T17:36:41.234Z,99092.63
2023-04-21T17:39:08.682Z,99093.34
2023-04-21T17:41:37.049Z,99100.41
2023-04-21T17:44:04.870Z,99110.47
2023-04-21T17:46:32.463Z,99112.16
2023-04-21T17:49:00.782Z,99125.22
2023-04-21T17:51:28.901Z,99128.38
2023-04-21T17:53:56.670Z,99134.19
2023-04-21T17:56:24.770Z,99141.28
2023-04-21T17:58:52.446Z,99144.66
2023-04-21T18:01:19.993Z,99149.06
2023-04-21T18:03:50.984Z,99149.47
2023-04-21T18:06:19.126Z,99156.81
2023-04-21T18:08:46.750Z,99160.25
2023-04-21T18:11:15.548Z,99159.47
2023-04-21T18:13:46.211Z,99157.72
2023-04-21T18:16:16.753Z,99164.34
2023-04-21T18:18:47.351Z,99175.53
2023-04-21T18:21:16.288Z,99175.41
2023-04-21T18:23:44.931Z,99187.38
2023-04-21T18:26:15.747Z,99187.03
2023-04-21T18:28:45.876Z,99203.38
2023-04-21T18:31:14.589Z,99205.47
2023-04-21T18:33:43.409Z,99208.19
2023-04-21T18:36:10.984Z,99219.59
2023-04-21T18:38:38.997Z,99219.56
2023-04-21T18:41:06.603Z,99221.56
2023-04-21T18:43:35.193Z,99227.50
2023-04-21T18:46:02.739Z,99227.25
2023-04-21T18:48:32.032Z,99231.75
2023-04-21T18:51:00.142Z,99238.44
2023-04-21T18:53:28.411Z,99236.16
2023-04-21T18:55:56.080Z,99235.34
2023-04-21T18:58:23.632Z,99236.78
2023-04-21T19:00:51.168Z,99235.13
2023-04-21T19:03:20.282Z,99237.56
2023-04-21T19:05:48.743Z,99237.66
2023-04-21T19:08:18.278Z,99242.94
2023-04-21T19:10:51.487Z,99250.63
2023-04-21T19:13:20.941Z,99247.28
2023-04-21T19:15:48.483Z,99251.19
2023-04-21T19:18:17.698Z,99261.53
2023-04-21T19:20:45.569Z,99266.69
2023-04-21T19:23:15.954Z,99259.13
2023-04-21T19:25:43.528Z,99260.56
2023-04-21T19:28:12.181Z,99264.09
2023-04-21T19:30:40.098Z,99265.66
2023-04-21T19:33:09.048Z,99257.03
2023-04-21T19:35:36.660Z,99251.63
2023-04-21T19:38:06.204Z,99253.41
2023-04-21T19:40:33.756Z,99244.13
2023-04-21T19:43:02.408Z,99251.34
2023-04-21T19:45:30.000Z,99252.63
2023-04-21T19:47:57.500Z,99256.69
2023-04-21T19:50:24.981Z,99255.25
2023-04-21T19:52:52.527Z,99245.81
2023-04-21T19:55:20.570Z,99250.81
2023-04-21T19:57:48.994Z,99257.63
2023-04-21T20:00:18.194Z,99255.81
2023-04-21T20:02:45.915Z,99252.03
2023-04-21T20:05:14.661Z,99252.25
2023-04-21T20:07:42.194Z,99251.31
2023-04-21T20:10:10.952Z,99257.91
2023-04-21T20:12:38.431Z,99256.69
2023-04-21T20:15:07.136Z,99261.06
2023-04-21T20:17:35.747Z,99260.06
2023-04-21T20:20:05.325Z,99265.38
2023-04-21T20:22:32.842Z,99253.06
2023-04-21T20:25:00.439Z,99252.44
2023-04-21T20:27:30.327Z,99240.44
2023-04-21T20:29:59.550Z,99257.03
2023-04-21T20:32:27.056Z,99261.69
2023-04-21T20:34:54.561Z,99264.94
2023-04-21T20:37:23.854Z,99269.59
2023-04-21T20:39:52.444Z,99272.66
2023-04-21T20:42:21.428Z,99272.03
2023-04-21T20:44:48.936Z,99276.72
2023-04-21T20:47:17.618Z,99285.22
2023-04-21T20:49:47.423Z,99290.78
2023-04-21T20:52:16.124Z,99299.47
2023-04-21T20:54:44.092Z,99299.69
2023-04-21T20:57:14.350Z,99309.22
2023-04-21T20:59:42.453Z,99315.84
2023-04-21T21:02:10.340Z,99321.53
2023-04-21T21:04:38.049Z,99329.69
2023-04-21T21:07:07.813Z,99325.19
2023-04-21T21:09:35.722Z,99323.63
2023-04-21T21:12:03.704Z,99318.34
2023-04-21T21:14:34.271Z,99313.84
2023-04-21T21:17:02.953Z,99306.81
2023-04-21T21:19:30.969Z,99290.75
2023-04-21T21:21:59.681Z,99289.53
2023-04-21T21:24:28.960Z,99292.63
2023-04-21T21:26:57.347Z,99300.31
2023-04-21T21:29:25.394Z,99317.47
2023-04-21T21:31:53.055Z,99313.31
2023-04-21T21:34:20.972Z,99318.28
2023-04-21T21:36:48.528Z,99312.13
2023-04-21T21:39:16.107Z,99306.09
2023-04-21T21:41:43.676Z,99317.50
2023-04-21T21:44:11.306Z,99308.38
2023-04-21T21:46:39.098Z,99312.13
2023-04-21T21:49:06.706Z,99304.03
2023-04-21T21:51:34.208Z,99300.69
2023-04-21T21:54:01.670Z,99302.81
2023-04-21T21:56:29.138Z,99300.19
2023-04-21T21:58:56.730Z,99303.47
2023-04-21T22:01:26.946Z,99301.69
2023-04-21T22:03:54.549Z,99293.78
2023-04-21T22:06:26.905Z,99294.00
2023-04-21T22:08:54.503Z,99293.91
2023-04-21T22:11:22.877Z,99288.88
2023-04-21T22:13:50.502Z,99292.84
2023-04-21T22:16:18.608Z,99283.16
2023-04-21T22:18:47.498Z,99288.31
2023-04-21T22:21:15.489Z,99287.66
2023-04-21T22:23:43.104Z,99288.66
2023-04-21T22:26:10.675Z,99290.50
2023-04-21T22:28:41.702Z,99293.91
2023-04-21T22:31:10.453Z,99294.69
2023-04-21T22:33:38.207Z,99299.63
2023-04-21T22:36:07.284Z,99298.75
2023-04-21T22:38:38.587Z,99288.53
2023-04-21T22:41:07.931Z,99294.00
2023-04-21T22:43:35.766Z,99300.03
2023-04-21T22:46:03.362Z,99304.53
2023-04-21T22:48:34.817Z,99310.47
2023-04-21T22:51:02.959Z,99311.53
2023-04-21T22:53:30.712Z,99312.09
2023-04-21T22:55:58.356Z,99310.13
2023-04-21T22:58:26.500Z,99321.53
2023-04-21T23:00:54.127Z,99312.06
2023-04-21T23:03:23.367Z,99313.06
2023-04-21T23:05:51.101Z,99313.72
2023-04-21T23:08:18.538Z,99313.94
2023-04-21T23:10:45.978Z,99316.13
2023-04-21T23:13:16.056Z,99310.72
2023-04-21T23:15:43.604Z,99308.53
2023-04-21T23:18:11.142Z,99311.31
2023-04-21T23:20:38.821Z,99298.78
2023-04-21T23:23:06.546Z,99302.63
2023-04-21T23:25:34.128Z,99304.25
2023-04-21T23:28:01.594Z,99303.47
2023-04-21T23:30:29.120Z,99300.53
2023-04-21T23:32:56.704Z,99303.47
2023-04-21T23:35:24.259Z,99297.66
2023-04-21T23:37:53.001Z,99305.09
2023-04-21T23:40:20.862Z,99306.66
2023-04-21T23:42:48.936Z,99303.69
2023-04-21T23:45:16.788Z,99308.19
2023-04-21T23:47:45.785Z,99314.44
2023-04-21T23:50:13.679Z,99314.75
2023-04-21T23:52:42.222Z,99320.66
2023-04-21T23:55:14.011Z,99312.44
2023-04-21T23:57:41.527Z,99310.09
